sensor_id;sensor_type;location;lat;lon;timestamp;P1;durP1;ratioP1;P2;durP2;ratioP2
13805;SDS011;6974;53.606;9.872;2022-12-29T00:00:11;4.47;;;4.07;;
13805;SDS011;6974;53.606;9.872;2022-12-29T00:02:39;4.57;;;4.17;;
13805;SDS011;6974;53.606;9.872;2022-12-29T00:05:06;4.60;;;4.20;;
13805;SDS011;6974;53.606;9.872;2022-12-29T00:07:35;5.20;;;3.97;;
13805;SDS011;6974;53.606;9.872;2022-12-29T00:10:01;3.80;;;3.50;;
13805;SDS011;6974;53.606;9.872;2022-12-29T00:12:29;4.67;;;3.97;;
13805;SDS011;6974;53.606;9.872;2022-12-29T00:15:15;5.67;;;4.20;;
13805;SDS011;6974;53.606;9.872;2022-12-29T00:18:00;4.47;;;4.07;;
13805;SDS011;6974;53.606;9.872;2022-12-29T00:20:26;4.70;;;3.80;;
13805;SDS011;6974;53.606;9.872;2022-12-29T00:23:12;4.83;;;4.33;;
13805;SDS011;6974;53.606;9.872;2022-12-29T00:25:56;4.63;;;4.23;;
13805;SDS011;6974;53.606;9.872;2022-12-29T00:28:41;4.37;;;3.97;;
13805;SDS011;6974;53.606;9.872;2022-12-29T00:31:25;4.73;;;4.30;;
13805;SDS011;6974;53.606;9.872;2022-12-29T00:34:10;4.77;;;4.23;;
13805;SDS011;6974;53.606;9.872;2022-12-29T00:36:54;4.30;;;3.87;;
13805;SDS011;6974;53.606;9.872;2022-12-29T00:39:23;4.87;;;4.47;;
13805;SDS011;6974;53.606;9.872;2022-12-29T00:42:08;4.73;;;4.20;;
13805;SDS011;6974;53.606;9.872;2022-12-29T00:44:52;5.17;;;4.67;;
13805;SDS011;6974;53.606;9.872;2022-12-29T00:47:19;6.30;;;4.90;;
13805;SDS011;6974;53.606;9.872;2022-12-29T00:49:46;5.47;;;4.40;;
13805;SDS011;6974;53.606;9.872;2022-12-29T00:52:13;4.60;;;4.20;;
13805;SDS011;6974;53.606;9.872;2022-12-29T00:54:41;5.00;;;4.60;;
13805;SDS011;6974;53.606;9.872;2022-12-29T00:57:10;4.87;;;4.37;;
13805;SDS011;6974;53.606;9.872;2022-12-29T00:59:38;4.90;;;4.20;;
13805;SDS011;6974;53.606;9.872;2022-12-29T01:02:06;4.77;;;4.30;;
13805;SDS011;6974;53.606;9.872;2022-12-29T01:04:34;4.77;;;4.37;;
13805;SDS011;6974;53.606;9.872;2022-12-29T01:07:01;4.87;;;4.13;;
13805;SDS011;6974;53.606;9.872;2022-12-29T01:09:28;4.73;;;4.33;;
13805;SDS011;6974;53.606;9.872;2022-12-29T01:12:13;4.63;;;4.20;;
13805;SDS011;6974;53.606;9.872;2022-12-29T01:14:40;4.30;;;4.00;;
13805;SDS011;6974;53.606;9.872;2022-12-29T01:17:07;4.07;;;3.77;;
13805;SDS011;6974;53.606;9.872;2022-12-29T01:19:34;4.57;;;4.13;;
13805;SDS011;6974;53.606;9.872;2022-12-29T01:22:01;4.00;;;3.67;;
13805;SDS011;6974;53.606;9.872;2022-12-29T01:24:28;4.63;;;4.30;;
13805;SDS011;6974;53.606;9.872;2022-12-29T01:26:55;3.90;;;3.60;;
13805;SDS011;6974;53.606;9.872;2022-12-29T01:29:24;4.20;;;3.90;;
13805;SDS011;6974;53.606;9.872;2022-12-29T01:31:52;4.77;;;4.37;;
13805;SDS011;6974;53.606;9.872;2022-12-29T01:34:19;4.97;;;4.57;;
13805;SDS011;6974;53.606;9.872;2022-12-29T01:36:46;4.43;;;4.03;;
13805;SDS011;6974;53.606;9.872;2022-12-29T01:39:14;5.50;;;4.73;;
13805;SDS011;6974;53.606;9.872;2022-12-29T01:41:41;5.23;;;4.73;;
13805;SDS011;6974;53.606;9.872;2022-12-29T01:47:33;6.13;;;5.03;;
13805;SDS011;6974;53.606;9.872;2022-12-29T01:50:05;5.57;;;5.07;;
13805;SDS011;6974;53.606;9.872;2022-12-29T01:52:38;5.00;;;4.50;;
13805;SDS011;6974;53.606;9.872;2022-12-29T01:55:10;5.87;;;5.33;;
13805;SDS011;6974;53.606;9.872;2022-12-29T01:57:40;5.40;;;5.00;;
13805;SDS011;6974;53.606;9.872;2022-12-29T02:00:12;7.03;;;5.23;;
13805;SDS011;6974;53.606;9.872;2022-12-29T02:02:43;6.43;;;5.67;;
13805;SDS011;6974;53.606;9.872;2022-12-29T02:05:14;5.70;;;5.20;;
13805;SDS011;6974;53.606;9.872;2022-12-29T02:07:47;5.73;;;5.23;;
13805;SDS011;6974;53.606;9.872;2022-12-29T02:10:15;6.30;;;5.80;;
13805;SDS011;6974;53.606;9.872;2022-12-29T02:12:44;7.23;;;5.67;;
13805;SDS011;6974;53.606;9.872;2022-12-29T02:15:13;6.13;;;5.53;;
13805;SDS011;6974;53.606;9.872;2022-12-29T02:18:00;6.23;;;5.50;;
13805;SDS011;6974;53.606;9.872;2022-12-29T02:24:06;5.70;;;5.30;;
13805;SDS011;6974;53.606;9.872;2022-12-29T02:26:58;5.57;;;5.17;;
13805;SDS011;6974;53.606;9.872;2022-12-29T02:29:58;6.10;;;5.50;;
13805;SDS011;6974;53.606;9.872;2022-12-29T02:32:35;6.97;;;5.60;;
13805;SDS011;6974;53.606;9.872;2022-12-29T02:35:09;5.50;;;5.00;;
13805;SDS011;6974;53.606;9.872;2022-12-29T02:37:48;5.40;;;4.97;;
13805;SDS011;6974;53.606;9.872;2022-12-29T02:40:26;5.13;;;4.73;;
13805;SDS011;6974;53.606;9.872;2022-12-29T02:43:01;5.30;;;4.90;;
13805;SDS011;6974;53.606;9.872;2022-12-29T02:45:41;4.80;;;4.40;;
13805;SDS011;6974;53.606;9.872;2022-12-29T02:48:16;4.73;;;4.33;;
13805;SDS011;6974;53.606;9.872;2022-12-29T02:50:47;4.67;;;4.33;;
13805;SDS011;6974;53.606;9.872;2022-12-29T02:53:19;4.83;;;4.43;;
13805;SDS011;6974;53.606;9.872;2022-12-29T02:56:07;5.23;;;4.60;;
13805;SDS011;6974;53.606;9.872;2022-12-29T02:58:33;4.93;;;4.53;;
13805;SDS011;6974;53.606;9.872;2022-12-29T03:01:08;5.30;;;4.60;;
13805;SDS011;6974;53.606;9.872;2022-12-29T03:03:51;4.53;;;4.13;;
13805;SDS011;6974;53.606;9.872;2022-12-29T03:06:33;4.37;;;4.07;;
13805;SDS011;6974;53.606;9.872;2022-12-29T03:09:18;4.60;;;4.20;;
13805;SDS011;6974;53.606;9.872;2022-12-29T03:12:03;4.30;;;4.00;;
13805;SDS011;6974;53.606;9.872;2022-12-29T03:14:39;4.53;;;4.13;;
13805;SDS011;6974;53.606;9.872;2022-12-29T03:17:38;4.40;;;4.10;;
13805;SDS011;6974;53.606;9.872;2022-12-29T03:20:14;4.17;;;3.77;;
13805;SDS011;6974;53.606;9.872;2022-12-29T03:22:46;4.20;;;3.90;;
13805;SDS011;6974;53.606;9.872;2022-12-29T03:25:16;4.43;;;4.13;;
13805;SDS011;6974;53.606;9.872;2022-12-29T03:27:47;4.03;;;3.73;;
13805;SDS011;6974;53.606;9.872;2022-12-29T03:30:17;4.47;;;3.67;;
13805;SDS011;6974;53.606;9.872;2022-12-29T03:32:46;4.10;;;3.70;;
13805;SDS011;6974;53.606;9.872;2022-12-29T03:35:19;3.57;;;3.27;;
13805;SDS011;6974;53.606;9.872;2022-12-29T03:37:50;4.17;;;3.87;;
13805;SDS011;6974;53.606;9.872;2022-12-29T03:40:24;4.33;;;3.93;;
13805;SDS011;6974;53.606;9.872;2022-12-29T03:42:54;3.80;;;3.40;;
13805;SDS011;6974;53.606;9.872;2022-12-29T03:45:22;4.07;;;3.53;;
13805;SDS011;6974;53.606;9.872;2022-12-29T03:47:49;4.40;;;3.80;;
13805;SDS011;6974;53.606;9.872;2022-12-29T03:50:18;3.90;;;3.60;;
13805;SDS011;6974;53.606;9.872;2022-12-29T03:52:46;3.77;;;3.47;;
13805;SDS011;6974;53.606;9.872;2022-12-29T03:55:13;3.63;;;3.37;;
13805;SDS011;6974;53.606;9.872;2022-12-29T03:57:40;3.50;;;3.20;;
13805;SDS011;6974;53.606;9.872;2022-12-29T04:00:07;3.53;;;3.23;;
13805;SDS011;6974;53.606;9.872;2022-12-29T04:02:36;3.50;;;3.20;;
13805;SDS011;6974;53.606;9.872;2022-12-29T04:05:03;4.00;;;3.60;;
13805;SDS011;6974;53.606;9.872;2022-12-29T04:07:33;3.57;;;3.27;;
13805;SDS011;6974;53.606;9.872;2022-12-29T04:10:00;3.67;;;3.13;;
13805;SDS011;6974;53.606;9.872;2022-12-29T04:12:27;3.50;;;3.20;;
13805;SDS011;6974;53.606;9.872;2022-12-29T04:14:54;3.50;;;3.20;;
13805;SDS011;6974;53.606;9.872;2022-12-29T04:17:21;4.13;;;3.83;;
13805;SDS011;6974;53.606;9.872;2022-12-29T04:19:49;3.77;;;3.37;;
13805;SDS011;6974;53.606;9.872;2022-12-29T04:22:38;3.27;;;2.93;;
13805;SDS011;6974;53.606;9.872;2022-12-29T04:25:06;2.87;;;2.67;;
13805;SDS011;6974;53.606;9.872;2022-12-29T04:27:34;3.10;;;2.80;;
13805;SDS011;6974;53.606;9.872;2022-12-29T04:30:01;2.70;;;2.50;;
13805;SDS011;6974;53.606;9.872;2022-12-29T04:32:29;2.60;;;2.30;;
13805;SDS011;6974;53.606;9.872;2022-12-29T04:34:56;2.67;;;2.47;;
13805;SDS011;6974;53.606;9.872;2022-12-29T04:37:23;2.70;;;2.30;;
13805;SDS011;6974;53.606;9.872;2022-12-29T04:39:52;2.43;;;2.23;;
13805;SDS011;6974;53.606;9.872;2022-12-29T04:42:19;2.13;;;1.93;;
13805;SDS011;6974;53.606;9.872;2022-12-29T04:44:46;2.40;;;2.20;;
13805;SDS011;6974;53.606;9.872;2022-12-29T04:47:13;2.10;;;2.00;;
13805;SDS011;6974;53.606;9.872;2022-12-29T04:49:41;2.60;;;2.40;;
13805;SDS011;6974;53.606;9.872;2022-12-29T04:52:08;2.40;;;2.20;;
13805;SDS011;6974;53.606;9.872;2022-12-29T04:54:36;2.00;;;1.90;;
13805;SDS011;6974;53.606;9.872;2022-12-29T04:57:04;2.20;;;2.00;;
13805;SDS011;6974;53.606;9.872;2022-12-29T04:59:31;2.50;;;2.30;;
13805;SDS011;6974;53.606;9.872;2022-12-29T05:01:59;2.53;;;2.33;;
13805;SDS011;6974;53.606;9.872;2022-12-29T05:04:26;2.97;;;2.30;;
13805;SDS011;6974;53.606;9.872;2022-12-29T05:06:53;2.77;;;2.30;;
13805;SDS011;6974;53.606;9.872;2022-12-29T05:09:20;1.97;;;1.87;;
13805;SDS011;6974;53.606;9.872;2022-12-29T05:11:49;2.23;;;2.07;;
13805;SDS011;6974;53.606;9.872;2022-12-29T05:14:17;2.50;;;2.30;;
13805;SDS011;6974;53.606;9.872;2022-12-29T05:16:44;2.53;;;2.10;;
13805;SDS011;6974;53.606;9.872;2022-12-29T05:19:11;2.20;;;2.10;;
13805;SDS011;6974;53.606;9.872;2022-12-29T05:21:39;2.17;;;2.07;;
13805;SDS011;6974;53.606;9.872;2022-12-29T05:24:06;2.50;;;2.30;;
13805;SDS011;6974;53.606;9.872;2022-12-29T05:26:34;2.40;;;2.27;;
13805;SDS011;6974;53.606;9.872;2022-12-29T05:29:02;2.50;;;2.30;;
13805;SDS011;6974;53.606;9.872;2022-12-29T05:31:30;2.77;;;2.57;;
13805;SDS011;6974;53.606;9.872;2022-12-29T05:33:58;3.03;;;2.80;;
13805;SDS011;6974;53.606;9.872;2022-12-29T05:36:25;2.97;;;2.77;;
13805;SDS011;6974;53.606;9.872;2022-12-29T05:38:52;3.50;;;3.30;;
13805;SDS011;6974;53.606;9.872;2022-12-29T05:41:19;3.13;;;2.87;;
13805;SDS011;6974;53.606;9.872;2022-12-29T05:43:46;3.47;;;3.17;;
13805;SDS011;6974;53.606;9.872;2022-12-29T05:46:13;3.77;;;3.00;;
13805;SDS011;6974;53.606;9.872;2022-12-29T05:48:42;3.00;;;2.80;;
13805;SDS011;6974;53.606;9.872;2022-12-29T05:51:10;2.90;;;2.70;;
13805;SDS011;6974;53.606;9.872;2022-12-29T05:53:37;2.90;;;2.70;;
13805;SDS011;6974;53.606;9.872;2022-12-29T05:56:04;3.00;;;2.80;;
13805;SDS011;6974;53.606;9.872;2022-12-29T05:58:31;3.10;;;2.47;;
13805;SDS011;6974;53.606;9.872;2022-12-29T06:00:59;2.57;;;2.37;;
13805;SDS011;6974;53.606;9.872;2022-12-29T06:03:26;3.27;;;2.70;;
13805;SDS011;6974;53.606;9.872;2022-12-29T06:05:55;2.53;;;2.20;;
13805;SDS011;6974;53.606;9.872;2022-12-29T06:08:22;2.30;;;2.10;;
13805;SDS011;6974;53.606;9.872;2022-12-29T06:10:49;3.07;;;2.20;;
13805;SDS011;6974;53.606;9.872;2022-12-29T06:13:16;3.53;;;2.40;;
13805;SDS011;6974;53.606;9.872;2022-12-29T06:15:43;2.30;;;2.10;;
13805;SDS011;6974;53.606;9.872;2022-12-29T06:18:11;2.43;;;2.27;;
13805;SDS011;6974;53.606;9.872;2022-12-29T06:20:38;3.10;;;2.00;;
13805;SDS011;6974;53.606;9.872;2022-12-29T06:23:06;2.30;;;2.10;;
13805;SDS011;6974;53.606;9.872;2022-12-29T06:25:34;2.57;;;2.10;;
13805;SDS011;6974;53.606;9.872;2022-12-29T06:28:01;2.67;;;2.47;;
13805;SDS011;6974;53.606;9.872;2022-12-29T06:30:30;2.17;;;2.00;;
13805;SDS011;6974;53.606;9.872;2022-12-29T06:32:57;3.07;;;2.10;;
13805;SDS011;6974;53.606;9.872;2022-12-29T06:35:26;2.17;;;2.07;;
13805;SDS011;6974;53.606;9.872;2022-12-29T06:37:53;2.23;;;1.90;;
13805;SDS011;6974;53.606;9.872;2022-12-29T06:40:22;2.33;;;2.13;;
13805;SDS011;6974;53.606;9.872;2022-12-29T06:42:49;4.97;;;2.20;;
13805;SDS011;6974;53.606;9.872;2022-12-29T06:45:16;1.93;;;1.73;;
13805;SDS011;6974;53.606;9.872;2022-12-29T06:47:43;2.00;;;1.80;;
13805;SDS011;6974;53.606;9.872;2022-12-29T06:50:10;2.30;;;2.10;;
13805;SDS011;6974;53.606;9.872;2022-12-29T06:52:37;1.80;;;1.70;;
13805;SDS011;6974;53.606;9.872;2022-12-29T06:55:05;2.47;;;2.13;;
13805;SDS011;6974;53.606;9.872;2022-12-29T06:57:34;2.90;;;2.20;;
13805;SDS011;6974;53.606;9.872;2022-12-29T07:00:01;4.80;;;2.30;;
13805;SDS011;6974;53.606;9.872;2022-12-29T07:02:29;2.33;;;1.90;;
13805;SDS011;6974;53.606;9.872;2022-12-29T07:04:57;2.83;;;2.30;;
13805;SDS011;6974;53.606;9.872;2022-12-29T07:07:24;2.70;;;2.30;;
13805;SDS011;6974;53.606;9.872;2022-12-29T07:09:51;2.53;;;2.30;;
13805;SDS011;6974;53.606;9.872;2022-12-29T07:12:18;2.57;;;2.07;;
13805;SDS011;6974;53.606;9.872;2022-12-29T07:14:47;3.10;;;2.10;;
13805;SDS011;6974;53.606;9.872;2022-12-29T07:17:14;2.27;;;2.07;;
13805;SDS011;6974;53.606;9.872;2022-12-29T07:19:41;2.93;;;2.07;;
13805;SDS011;6974;53.606;9.872;2022-12-29T07:22:09;2.30;;;2.10;;
13805;SDS011;6974;53.606;9.872;2022-12-29T07:24:36;2.50;;;2.30;;
13805;SDS011;6974;53.606;9.872;2022-12-29T07:27:04;2.93;;;2.23;;
13805;SDS011;6974;53.606;9.872;2022-12-29T07:29:32;2.40;;;2.00;;
13805;SDS011;6974;53.606;9.872;2022-12-29T07:32:01;2.20;;;2.10;;
13805;SDS011;6974;53.606;9.872;2022-12-29T07:34:28;2.60;;;2.10;;
13805;SDS011;6974;53.606;9.872;2022-12-29T07:36:55;3.17;;;2.33;;
13805;SDS011;6974;53.606;9.872;2022-12-29T07:39:22;2.37;;;2.10;;
13805;SDS011;6974;53.606;9.872;2022-12-29T07:41:49;3.70;;;2.07;;
13805;SDS011;6974;53.606;9.872;2022-12-29T07:44:16;2.27;;;2.07;;
13805;SDS011;6974;53.606;9.872;2022-12-29T07:46:43;2.90;;;2.10;;
13805;SDS011;6974;53.606;9.872;2022-12-29T07:49:12;3.30;;;2.23;;
13805;SDS011;6974;53.606;9.872;2022-12-29T07:51:39;4.03;;;2.30;;
13805;SDS011;6974;53.606;9.872;2022-12-29T07:54:08;2.63;;;2.00;;
13805;SDS011;6974;53.606;9.872;2022-12-29T07:56:35;2.90;;;2.00;;
13805;SDS011;6974;53.606;9.872;2022-12-29T07:59:03;2.47;;;2.27;;
13805;SDS011;6974;53.606;9.872;2022-12-29T08:01:30;2.53;;;2.30;;
13805;SDS011;6974;53.606;9.872;2022-12-29T08:03:57;5.40;;;2.03;;
13805;SDS011;6974;53.606;9.872;2022-12-29T08:06:26;4.63;;;2.10;;
13805;SDS011;6974;53.606;9.872;2022-12-29T08:08:55;2.10;;;1.90;;
13805;SDS011;6974;53.606;9.872;2022-12-29T08:11:22;2.13;;;1.90;;
13805;SDS011;6974;53.606;9.872;2022-12-29T08:13:49;2.50;;;1.90;;
13805;SDS011;6974;53.606;9.872;2022-12-29T08:16:17;2.30;;;1.70;;
13805;SDS011;6974;53.606;9.872;2022-12-29T08:18:44;2.87;;;1.63;;
13805;SDS011;6974;53.606;9.872;2022-12-29T08:21:11;1.97;;;1.57;;
13805;SDS011;6974;53.606;9.872;2022-12-29T08:23:40;2.67;;;1.80;;
13805;SDS011;6974;53.606;9.872;2022-12-29T08:26:07;2.17;;;1.87;;
13805;SDS011;6974;53.606;9.872;2022-12-29T08:28:34;2.80;;;1.50;;
13805;SDS011;6974;53.606;9.872;2022-12-29T08:31:01;3.10;;;1.93;;
13805;SDS011;6974;53.606;9.872;2022-12-29T08:33:29;3.60;;;1.80;;
13805;SDS011;6974;53.606;9.872;2022-12-29T08:36:00;3.40;;;1.60;;
13805;SDS011;6974;53.606;9.872;2022-12-29T08:38:27;2.77;;;2.03;;
13805;SDS011;6974;53.606;9.872;2022-12-29T08:40:56;4.63;;;2.73;;
13805;SDS011;6974;53.606;9.872;2022-12-29T08:43:26;3.40;;;2.13;;
13805;SDS011;6974;53.606;9.872;2022-12-29T08:45:55;2.83;;;2.13;;
13805;SDS011;6974;53.606;9.872;2022-12-29T08:48:23;4.20;;;1.87;;
13805;SDS011;6974;53.606;9.872;2022-12-29T08:50:51;5.33;;;2.40;;
13805;SDS011;6974;53.606;9.872;2022-12-29T08:53:18;3.30;;;2.07;;
13805;SDS011;6974;53.606;9.872;2022-12-29T08:55:45;3.87;;;1.80;;
13805;SDS011;6974;53.606;9.872;2022-12-29T08:58:15;2.37;;;1.73;;
13805;SDS011;6974;53.606;9.872;2022-12-29T09:00:43;3.63;;;1.97;;
13805;SDS011;6974;53.606;9.872;2022-12-29T09:03:10;4.30;;;1.90;;
13805;SDS011;6974;53.606;9.872;2022-12-29T09:05:37;3.00;;;1.87;;
13805;SDS011;6974;53.606;9.872;2022-12-29T09:08:05;4.23;;;1.70;;
13805;SDS011;6974;53.606;9.872;2022-12-29T09:10:32;2.20;;;1.63;;
13805;SDS011;6974;53.606;9.872;2022-12-29T09:12:59;2.80;;;1.77;;
13805;SDS011;6974;53.606;9.872;2022-12-29T09:15:28;4.73;;;1.87;;
13805;SDS011;6974;53.606;9.872;2022-12-29T09:17:54;3.27;;;1.63;;
13805;SDS011;6974;53.606;9.872;2022-12-29T09:20:22;1.97;;;1.53;;
13805;SDS011;6974;53.606;9.872;2022-12-29T09:22:49;4.43;;;1.60;;
13805;SDS011;6974;53.606;9.872;2022-12-29T09:25:16;3.40;;;2.00;;
13805;SDS011;6974;53.606;9.872;2022-12-29T09:27:45;1.60;;;1.47;;
13805;SDS011;6974;53.606;9.872;2022-12-29T09:30:13;4.00;;;1.60;;
13805;SDS011;6974;53.606;9.872;2022-12-29T09:32:41;2.53;;;1.50;;
13805;SDS011;6974;53.606;9.872;2022-12-29T09:35:11;6.43;;;1.80;;
13805;SDS011;6974;53.606;9.872;2022-12-29T09:37:38;3.70;;;1.70;;
13805;SDS011;6974;53.606;9.872;2022-12-29T09:40:06;5.27;;;2.10;;
13805;SDS011;6974;53.606;9.872;2022-12-29T09:42:42;5.53;;;2.17;;
13805;SDS011;6974;53.606;9.872;2022-12-29T09:45:15;2.33;;;1.60;;
13805;SDS011;6974;53.606;9.872;2022-12-29T09:47:46;3.33;;;1.80;;
13805;SDS011;6974;53.606;9.872;2022-12-29T09:50:16;5.90;;;2.00;;
13805;SDS011;6974;53.606;9.872;2022-12-29T09:52:50;4.50;;;1.87;;
13805;SDS011;6974;53.606;9.872;2022-12-29T09:55:22;5.23;;;1.87;;
13805;SDS011;6974;53.606;9.872;2022-12-29T09:57:53;3.23;;;1.60;;
13805;SDS011;6974;53.606;9.872;2022-12-29T10:00:27;7.43;;;1.93;;
13805;SDS011;6974;53.606;9.872;2022-12-29T10:03:05;3.53;;;2.13;;
13805;SDS011;6974;53.606;9.872;2022-12-29T10:05:43;5.17;;;1.87;;
13805;SDS011;6974;53.606;9.872;2022-12-29T10:08:18;6.33;;;2.13;;
13805;SDS011;6974;53.606;9.872;2022-12-29T10:10:56;2.90;;;1.70;;
13805;SDS011;6974;53.606;9.872;2022-12-29T10:13:28;5.63;;;2.20;;
13805;SDS011;6974;53.606;9.872;2022-12-29T10:16:05;6.23;;;2.07;;
13805;SDS011;6974;53.606;9.872;2022-12-29T10:21:40;4.37;;;1.97;;
13805;SDS011;6974;53.606;9.872;2022-12-29T10:24:20;4.23;;;2.13;;
13805;SDS011;6974;53.606;9.872;2022-12-29T10:26:48;6.70;;;2.10;;
13805;SDS011;6974;53.606;9.872;2022-12-29T10:29:20;5.40;;;2.07;;
13805;SDS011;6974;53.606;9.872;2022-12-29T10:31:52;3.83;;;2.07;;
13805;SDS011;6974;53.606;9.872;2022-12-29T10:34:24;4.23;;;2.03;;
13805;SDS011;6974;53.606;9.872;2022-12-29T10:36:55;5.57;;;1.90;;
13805;SDS011;6974;53.606;9.872;2022-12-29T10:39:30;6.23;;;2.53;;
13805;SDS011;6974;53.606;9.872;2022-12-29T10:42:04;5.83;;;2.10;;
13805;SDS011;6974;53.606;9.872;2022-12-29T10:44:37;5.10;;;1.90;;
13805;SDS011;6974;53.606;9.872;2022-12-29T10:47:06;3.93;;;2.00;;
13805;SDS011;6974;53.606;9.872;2022-12-29T10:49:40;5.53;;;2.40;;
13805;SDS011;6974;53.606;9.872;2022-12-29T10:52:08;6.93;;;2.40;;
13805;SDS011;6974;53.606;9.872;2022-12-29T10:54:38;8.10;;;2.27;;
13805;SDS011;6974;53.606;9.872;2022-12-29T10:57:13;7.57;;;2.37;;
13805;SDS011;6974;53.606;9.872;2022-12-29T10:59:50;6.03;;;2.03;;
13805;SDS011;6974;53.606;9.872;2022-12-29T11:02:24;4.37;;;2.23;;
13805;SDS011;6974;53.606;9.872;2022-12-29T11:05:05;5.43;;;2.03;;
13805;SDS011;6974;53.606;9.872;2022-12-29T11:07:41;5.70;;;2.27;;
13805;SDS011;6974;53.606;9.872;2022-12-29T11:10:15;7.20;;;2.20;;
13805;SDS011;6974;53.606;9.872;2022-12-29T11:12:55;9.37;;;2.43;;
13805;SDS011;6974;53.606;9.872;2022-12-29T11:15:25;5.30;;;1.93;;
13805;SDS011;6974;53.606;9.872;2022-12-29T11:17:53;7.50;;;2.67;;
13805;SDS011;6974;53.606;9.872;2022-12-29T11:20:33;5.10;;;1.80;;
13805;SDS011;6974;53.606;9.872;2022-12-29T11:23:03;5.47;;;2.10;;
13805;SDS011;6974;53.606;9.872;2022-12-29T11:25:31;5.27;;;2.13;;
13805;SDS011;6974;53.606;9.872;2022-12-29T11:27:59;5.17;;;1.83;;
13805;SDS011;6974;53.606;9.872;2022-12-29T11:30:29;5.00;;;2.00;;
13805;SDS011;6974;53.606;9.872;2022-12-29T11:32:58;4.70;;;1.93;;
13805;SDS011;6974;53.606;9.872;2022-12-29T11:35:30;3.93;;;1.60;;
13805;SDS011;6974;53.606;9.872;2022-12-29T11:38:01;3.80;;;1.70;;
13805;SDS011;6974;53.606;9.872;2022-12-29T11:40:29;4.00;;;1.70;;
13805;SDS011;6974;53.606;9.872;2022-12-29T11:42:57;5.23;;;1.73;;
13805;SDS011;6974;53.606;9.872;2022-12-29T11:45:29;3.90;;;1.70;;
13805;SDS011;6974;53.606;9.872;2022-12-29T11:47:59;4.40;;;1.43;;
13805;SDS011;6974;53.606;9.872;2022-12-29T11:50:34;3.17;;;1.60;;
13805;SDS011;6974;53.606;9.872;2022-12-29T11:53:05;5.27;;;1.50;;
13805;SDS011;6974;53.606;9.872;2022-12-29T11:55:49;4.97;;;1.87;;
13805;SDS011;6974;53.606;9.872;2022-12-29T11:58:19;5.43;;;1.87;;
13805;SDS011;6974;53.606;9.872;2022-12-29T12:00:46;6.03;;;1.80;;
13805;SDS011;6974;53.606;9.872;2022-12-29T12:03:19;4.63;;;1.50;;
13805;SDS011;6974;53.606;9.872;2022-12-29T12:05:50;3.67;;;1.50;;
13805;SDS011;6974;53.606;9.872;2022-12-29T12:08:23;6.63;;;1.73;;
13805;SDS011;6974;53.606;9.872;2022-12-29T12:11:02;4.87;;;1.60;;
13805;SDS011;6974;53.606;9.872;2022-12-29T12:13:33;4.90;;;1.87;;
13805;SDS011;6974;53.606;9.872;2022-12-29T12:16:06;6.47;;;2.03;;
13805;SDS011;6974;53.606;9.872;2022-12-29T12:18:38;3.37;;;1.73;;
13805;SDS011;6974;53.606;9.872;2022-12-29T12:21:15;3.50;;;1.67;;
13805;SDS011;6974;53.606;9.872;2022-12-29T12:23:53;5.70;;;2.20;;
13805;SDS011;6974;53.606;9.872;2022-12-29T12:26:32;4.03;;;2.07;;
13805;SDS011;6974;53.606;9.872;2022-12-29T12:29:05;4.67;;;1.77;;
13805;SDS011;6974;53.606;9.872;2022-12-29T12:31:41;4.97;;;2.10;;
13805;SDS011;6974;53.606;9.872;2022-12-29T12:34:13;5.10;;;2.10;;
13805;SDS011;6974;53.606;9.872;2022-12-29T12:36:52;4.90;;;1.90;;
13805;SDS011;6974;53.606;9.872;2022-12-29T12:39:33;9.07;;;2.37;;
13805;SDS011;6974;53.606;9.872;2022-12-29T12:42:13;5.90;;;2.30;;
13805;SDS011;6974;53.606;9.872;2022-12-29T12:44:54;3.90;;;1.80;;
13805;SDS011;6974;53.606;9.872;2022-12-29T12:47:36;8.10;;;2.00;;
13805;SDS011;6974;53.606;9.872;2022-12-29T12:50:22;7.00;;;2.30;;
13805;SDS011;6974;53.606;9.872;2022-12-29T12:53:11;6.30;;;2.13;;
13805;SDS011;6974;53.606;9.872;2022-12-29T12:55:52;5.20;;;1.90;;
13805;SDS011;6974;53.606;9.872;2022-12-29T12:58:33;4.73;;;1.90;;
13805;SDS011;6974;53.606;9.872;2022-12-29T13:01:10;4.93;;;2.30;;
13805;SDS011;6974;53.606;9.872;2022-12-29T13:03:47;10.03;;;2.17;;
13805;SDS011;6974;53.606;9.872;2022-12-29T13:06:27;6.07;;;2.50;;
13805;SDS011;6974;53.606;9.872;2022-12-29T13:09:24;4.53;;;2.10;;
13805;SDS011;6974;53.606;9.872;2022-12-29T13:12:03;7.03;;;2.20;;
13805;SDS011;6974;53.606;9.872;2022-12-29T13:14:45;6.30;;;1.90;;
13805;SDS011;6974;53.606;9.872;2022-12-29T13:17:20;7.03;;;2.30;;
13805;SDS011;6974;53.606;9.872;2022-12-29T13:19:54;7.07;;;2.70;;
13805;SDS011;6974;53.606;9.872;2022-12-29T13:22:29;4.63;;;2.07;;
13805;SDS011;6974;53.606;9.872;2022-12-29T13:25:07;4.83;;;1.93;;
13805;SDS011;6974;53.606;9.872;2022-12-29T13:27:51;7.97;;;2.40;;
13805;SDS011;6974;53.606;9.872;2022-12-29T13:30:23;6.87;;;2.37;;
13805;SDS011;6974;53.606;9.872;2022-12-29T13:32:59;5.90;;;2.27;;
13805;SDS011;6974;53.606;9.872;2022-12-29T13:35:37;5.87;;;2.30;;
13805;SDS011;6974;53.606;9.872;2022-12-29T13:38:11;7.13;;;2.00;;
13805;SDS011;6974;53.606;9.872;2022-12-29T13:40:43;4.23;;;2.40;;
13805;SDS011;6974;53.606;9.872;2022-12-29T13:43:15;6.67;;;2.60;;
13805;SDS011;6974;53.606;9.872;2022-12-29T13:45:44;6.73;;;2.97;;
13805;SDS011;6974;53.606;9.872;2022-12-29T13:48:15;6.87;;;2.60;;
13805;SDS011;6974;53.606;9.872;2022-12-29T13:50:48;6.47;;;2.40;;
13805;SDS011;6974;53.606;9.872;2022-12-29T13:53:23;6.40;;;2.50;;
13805;SDS011;6974;53.606;9.872;2022-12-29T13:56:03;6.23;;;2.17;;
13805;SDS011;6974;53.606;9.872;2022-12-29T13:58:34;3.80;;;1.73;;
13805;SDS011;6974;53.606;9.872;2022-12-29T14:01:08;5.43;;;1.67;;
13805;SDS011;6974;53.606;9.872;2022-12-29T14:03:47;5.13;;;1.60;;
13805;SDS011;6974;53.606;9.872;2022-12-29T14:06:20;3.37;;;1.43;;
13805;SDS011;6974;53.606;9.872;2022-12-29T14:08:52;4.07;;;1.60;;
13805;SDS011;6974;53.606;9.872;2022-12-29T14:11:22;3.40;;;1.90;;
13805;SDS011;6974;53.606;9.872;2022-12-29T14:13:55;6.03;;;1.90;;
13805;SDS011;6974;53.606;9.872;2022-12-29T14:16:27;4.97;;;2.17;;
13805;SDS011;6974;53.606;9.872;2022-12-29T14:18:56;5.50;;;2.00;;
13805;SDS011;6974;53.606;9.872;2022-12-29T14:21:30;5.97;;;2.23;;
13805;SDS011;6974;53.606;9.872;2022-12-29T14:30:07;5.90;;;2.27;;
13805;SDS011;6974;53.606;9.872;2022-12-29T14:33:13;5.13;;;1.93;;
13805;SDS011;6974;53.606;9.872;2022-12-29T14:35:41;5.67;;;2.13;;
13805;SDS011;6974;53.606;9.872;2022-12-29T14:38:16;7.50;;;2.47;;
13805;SDS011;6974;53.606;9.872;2022-12-29T14:40:49;5.00;;;2.13;;
13805;SDS011;6974;53.606;9.872;2022-12-29T14:43:26;5.93;;;2.13;;
13805;SDS011;6974;53.606;9.872;2022-12-29T14:45:56;5.53;;;2.83;;
13805;SDS011;6974;53.606;9.872;2022-12-29T14:48:30;5.73;;;2.40;;
13805;SDS011;6974;53.606;9.872;2022-12-29T14:51:01;4.83;;;2.00;;
13805;SDS011;6974;53.606;9.872;2022-12-29T14:53:44;6.97;;;2.73;;
13805;SDS011;6974;53.606;9.872;2022-12-29T14:56:13;7.77;;;2.60;;
13805;SDS011;6974;53.606;9.872;2022-12-29T14:58:47;6.03;;;2.20;;
13805;SDS011;6974;53.606;9.872;2022-12-29T15:01:19;8.57;;;3.00;;
13805;SDS011;6974;53.606;9.872;2022-12-29T15:04:00;11.13;;;5.53;;
13805;SDS011;6974;53.606;9.872;2022-12-29T15:06:33;6.60;;;2.87;;
13805;SDS011;6974;53.606;9.872;2022-12-29T15:09:06;5.63;;;2.00;;
13805;SDS011;6974;53.606;9.872;2022-12-29T15:11:44;5.57;;;2.07;;
13805;SDS011;6974;53.606;9.872;2022-12-29T15:14:29;5.30;;;2.37;;
13805;SDS011;6974;53.606;9.872;2022-12-29T15:17:08;6.33;;;2.50;;
13805;SDS011;6974;53.606;9.872;2022-12-29T15:19:47;7.43;;;2.30;;
13805;SDS011;6974;53.606;9.872;2022-12-29T15:22:14;7.63;;;2.70;;
13805;SDS011;6974;53.606;9.872;2022-12-29T15:24:41;7.87;;;2.80;;
13805;SDS011;6974;53.606;9.872;2022-12-29T15:27:13;5.47;;;2.63;;
13805;SDS011;6974;53.606;9.872;2022-12-29T15:29:41;4.47;;;2.13;;
13805;SDS011;6974;53.606;9.872;2022-12-29T15:32:15;6.37;;;2.80;;
13805;SDS011;6974;53.606;9.872;2022-12-29T15:34:47;6.27;;;2.53;;
13805;SDS011;6974;53.606;9.872;2022-12-29T15:37:20;9.30;;;2.97;;
13805;SDS011;6974;53.606;9.872;2022-12-29T15:39:48;7.30;;;2.90;;
13805;SDS011;6974;53.606;9.872;2022-12-29T15:42:20;8.60;;;3.53;;